Flight Track Log - Related Links

Times and Time Zones

All times are in EDT time to prevent confusion due to time zone crossing. See the BSK1106 flight status page for this flight to view local times or setup timezone preferences in your user account.


Time Position Orientation Groundspeed Altitude Reporting Facility
EDT Latitude Longitude Course Direction KTS MPH feet Rate Location/Type
Fri 05:24:05 PM 27.9000 -82.6833 180° South 180 207 600  Level Tampa TRACON
Fri 05:24:29 PM 27.8833 -82.6833 180° South 164 189 1,600 1,867 Climbing Tampa TRACON
Fri 05:25:35 PM 27.8167 -82.6833 180° South 227 261 3,400 2,194 Climbing Tampa TRACON
Fri 05:27:35 PM 27.8869 -82.7494 320° Northwest 246 283 8,400 2,367 Climbing Jacksonville Center
Fri 05:28:35 PM 27.9703 -82.7281 13° North 263 303 10,500 2,039 Climbing Jacksonville Center
Fri 05:34:27 PM 28.6620 -82.6744 North 454 522 22,400 1,808 Climbing FlightAware ADS-B
Fri 05:38:49 PM 29.2339 -82.6373 North 469 540 29,000 1,605 Climbing FlightAware ADS-B
Fri 05:39:41 PM 29.3457 -82.6296 North 469 540 30,800 1,475 Climbing FlightAware ADS-B
Fri 05:40:51 PM 29.4919 -82.6206 North 458 527 32,000 1,086 Climbing FlightAware ADS-B
Fri 05:41:37 PM 29.5896 -82.6143 North 460 529 32,900 1,146 Climbing FlightAware ADS-B
Fri 05:42:20 PM 29.6813 -82.6158 356° North 450 518 33,700 1,040 Climbing FlightAware ADS-B
Fri 05:42:52 PM 29.7465 -82.6208 356° North 451 519 34,200 1,014 Climbing FlightAware ADS-B
Fri 05:43:31 PM 29.8272 -82.6258 357° North 454 522 34,900 1,014 Climbing FlightAware ADS-B
Fri 05:44:03 PM 29.8948 -82.6296 357° North 454 522 35,400 1,029 Climbing FlightAware ADS-B
Fri 05:44:41 PM 29.9748 -82.6342 358° North 449 517 36,100 971 Climbing FlightAware ADS-B
Fri 05:45:11 PM 30.0363 -82.6375 357° North 450 518 36,500 689 Climbing FlightAware ADS-B
Fri 05:45:42 PM 30.1013 -82.6413 357° North 450 518 36,800 600 Climbing FlightAware ADS-B
Fri 05:46:01 PM 30.1422 -82.6423 North 460 529 37,000 245 Climbing FlightAware ADS-B
Fri 05:46:31 PM 30.2019 -82.6370 North 464 534 37,000  Level FlightAware ADS-B
Fri 05:47:03 PM 30.2733 -82.6299 North 465 535 37,000  Level FlightAware ADS-B
Fri 05:47:33 PM 30.3310 -82.6243 North 466 536 37,000  Level FlightAware ADS-B
Fri 05:48:20 PM 30.4409 -82.6138 North 466 536 37,000  Level FlightAware ADS-B
Fri 05:49:34 PM 30.5997 -82.5988 North 472 543 37,000  Level FlightAware ADS-B
Fri 05:51:42 PM 30.8843 -82.5762 358° North 478 550 37,000  Level FlightAware ADS-B
Fri 05:52:35 PM 30.9572 -82.6139 358° North 448 516 37,000  Level Jacksonville Center
Fri 05:53:35 PM 31.0661 -82.6839 331° Northwest 436 502 37,000  Level Jacksonville Center
Fri 05:54:35 PM 31.1831 -82.7589 331° Northwest 430 495 37,000  Level Jacksonville Center
Fri 05:55:35 PM 31.2917 -82.8317 330° Northwest 436 502 37,000  Level Jacksonville Center
Fri 05:57:08 PM 31.4494 -82.9386 330° Northwest 465 535 37,000  Level Atlanta Center
Fri 05:58:08 PM 31.5544 -83.0081 331° Northwest 457 526 37,000  Level Atlanta Center
Fri 05:59:08 PM 31.6636 -83.0847 329° Northwest 452 520 37,000  Level Atlanta Center
Fri 06:00:08 PM 31.7706 -83.1544 331° Northwest 446 513 37,000  Level Atlanta Center
Fri 06:01:08 PM 31.8775 -83.2269 330° Northwest 446 513 37,000  Level Atlanta Center
Fri 06:02:08 PM 31.9492 -83.3364 308° West 423 487 37,000  Level Atlanta Center
Fri 06:03:08 PM 32.0061 -83.4511 300° West 417 480 37,000 400 Level Atlanta Center
Fri 06:04:08 PM 32.0692 -83.5756 301° West 412 474 37,800 500 Climbing Atlanta Center
Fri 06:05:08 PM 32.1261 -83.6881 301° West 407 468 38,000 100 Climbing Atlanta Center
Fri 06:06:08 PM 32.1806 -83.8008 300° West 402 463 38,000  Level Atlanta Center
Fri 06:07:08 PM 32.2369 -83.9136 301° West 402 463 38,000  Level Atlanta Center
Fri 06:08:07 PM 32.2914 -84.0267 300° West 402 463 38,000  Level Atlanta Center
Fri 06:09:08 PM 32.3478 -84.1422 300° West 402 463 38,000  Level Atlanta Center
Fri 06:10:08 PM 32.4061 -84.2578 301° West 402 463 38,000  Level Atlanta Center
Fri 06:11:07 PM 32.4642 -84.3736 301° West 402 463 38,000  Level Atlanta Center
Fri 06:12:08 PM 32.5222 -84.4922 300° West 407 468 38,000  Level Atlanta Center
Fri 06:13:08 PM 32.5803 -84.6133 300° West 412 474 38,000  Level Atlanta Center
Fri 06:14:08 PM 32.6400 -84.7319 301° West 417 480 38,000  Level Atlanta Center
Fri 06:15:08 PM 32.6894 -84.8361 299° West 408 470 38,000  Level Atlanta Center
Fri 06:16:07 PM 32.7556 -84.9600 302° West 414 476 38,000  Level Atlanta Center
Fri 06:17:08 PM 32.8169 -85.1042 297° West 441 507 38,000  Level Atlanta Center
Fri 06:18:08 PM 32.8725 -85.2061 303° West 435 501 38,000  Level Atlanta Center
Fri 06:19:07 PM 32.9275 -85.3233 299° West 419 482 38,000  Level Atlanta Center
Fri 06:20:08 PM 32.9889 -85.4481 300° West 419 482 38,000  Level Atlanta Center
Fri 06:21:08 PM 33.0458 -85.5653 300° West 424 488 38,000  Level Atlanta Center
Fri 06:22:08 PM 33.1028 -85.6853 300° West 424 488 38,000  Level Atlanta Center
Fri 06:23:07 PM 33.1597 -85.8056 300° West 424 488 38,000  Level Atlanta Center
Fri 06:24:08 PM 33.2289 -85.9186 306° West 424 488 38,000  Level Atlanta Center
Fri 06:25:08 PM 33.2961 -86.0319 305° West 430 495 38,000  Level Atlanta Center
Fri 06:26:07 PM 33.3650 -86.1481 305° West 430 495 38,000  Level Atlanta Center
Fri 06:27:08 PM 33.4319 -86.2592 306° West 419 482 38,000  Level Atlanta Center
Fri 06:33:00 PM 32.8476 -85.1581 304° West 431 496 38,000  Level FlightAware ADS-B (KMDQ)
Fri 06:33:45 PM 34.0036 -86.9481 304° West 432 497 38,000  Level Memphis Center
Fri 06:39:19 PM 34.3742 -87.6326 303° West 436 502 38,000  Level FlightAware ADS-B (KMDQ)
Fri 06:39:50 PM 34.4092 -87.6972 303° West 436 502 38,000  Level FlightAware ADS-B (KMDQ)
Fri 06:40:59 PM 34.4836 -87.8269 303° West 436 502 38,000  Level Memphis Center
Fri 06:42:01 PM 34.5556 -87.9619 303° West 435 501 38,000  Level Memphis Center
Fri 06:43:03 PM 34.6206 -88.0839 303° West 434 499 38,000  Level Memphis Center
Fri 06:44:05 PM 34.6844 -88.2039 303° West 430 495 38,000  Level Memphis Center
Fri 06:45:07 PM 34.7486 -88.3219 304° West 424 488 38,000  Level Memphis Center
Fri 06:46:09 PM 34.8233 -88.4642 303° West 421 484 38,000  Level Memphis Center
Fri 06:47:11 PM 34.8775 -88.5661 303° West 412 474 38,000  Level Memphis Center
Fri 06:48:13 PM 34.9497 -88.7061 302° West 411 473 38,000  Level Memphis Center
Fri 06:49:15 PM 35.0100 -88.8206 303° West 407 468 38,000  Level Memphis Center
Fri 06:50:18 PM 35.0692 -88.9358 302° West 406 467 38,000  Level Memphis Center
Fri 06:51:20 PM 35.1306 -89.0506 303° West 406 467 38,000  Level Memphis Center
Fri 06:52:22 PM 35.1894 -89.1656 302° West 406 467 38,000  Level Memphis Center
Fri 06:53:24 PM 35.2614 -89.3042 302° West 406 467 38,000  Level Memphis Center
Fri 06:54:26 PM 35.3214 -89.4217 302° West 406 467 38,000  Level Memphis Center
Fri 06:55:28 PM 35.3825 -89.5389 303° West 407 468 38,000  Level Memphis Center
Fri 06:56:30 PM 35.4431 -89.6583 302° West 410 472 38,000  Level Memphis Center
Fri 06:57:32 PM 35.5036 -89.7783 302° West 413 475 38,000  Level Memphis Center
Fri 06:58:34 PM 35.5764 -89.9222 302° West 413 475 38,000  Level Memphis Center
Fri 06:59:37 PM 35.6344 -90.0350 302° West 403 464 38,000  Level Memphis Center
Fri 07:00:38 PM 35.6942 -90.1572 301° West 399 459 38,000  Level Memphis Center
Fri 07:01:40 PM 35.7528 -90.2733 302° West 398 458 38,000  Level Memphis Center
Fri 07:02:42 PM 35.8119 -90.3897 302° West 398 458 38,000  Level Memphis Center
Fri 07:03:44 PM 35.8700 -90.5058 302° West 398 458 38,000  Level Memphis Center
Fri 07:04:46 PM 35.9283 -90.6247 301° West 398 458 38,000  Level Memphis Center
Fri 07:05:48 PM 35.9869 -90.7436 301° West 401 461 38,000  Level Memphis Center
Fri 07:06:50 PM 36.0469 -90.8642 302° West 406 467 38,000  Level Memphis Center
Fri 07:07:52 PM 36.1186 -91.0108 301° West 411 473 38,000  Level Memphis Center
Fri 07:08:54 PM 36.1786 -91.1325 301° West 411 473 38,000 -823 Level Memphis Center
Fri 07:09:56 PM 36.2378 -91.2561 301° West 412 474 36,300 -1,887 Descending Memphis Center
Fri 07:10:58 PM 36.2994 -91.3831 301° West 422 486 34,100 -1,500 Descending Memphis Center
Fri 07:12:00 PM 36.3603 -91.5067 301° West 424 488 33,200 -878 Descending Memphis Center
Fri 07:13:01 PM 36.4200 -91.6328 301° West 423 487 32,300 -2,000 Descending Memphis Center
Fri 07:14:03 PM 36.4928 -91.7817 301° West 424 488 29,100 -2,806 Descending Memphis Center
Fri 07:15:05 PM 36.5528 -91.9067 301° West 426 490 26,500 -2,419 Descending Memphis Center
Fri 07:16:07 PM 36.6094 -92.0283 300° West 412 474 24,100 -2,468 Descending Memphis Center
Fri 07:17:09 PM 36.6675 -92.1469 301° West 406 467 21,400 -2,323 Descending Memphis Center
Fri 07:18:11 PM 36.7231 -92.2647 301° West 396 456 19,300 -1,920 Descending Memphis Center
Fri 07:19:14 PM 36.7733 -92.3769 299° West 378 435 17,400 -1,571 Descending Kansas City Center
Fri 07:20:17 PM 36.8256 -92.4844 301° West 368 423 16,000 -683 Descending Kansas City Center
Fri 07:21:17 PM 36.8633 -92.5858 295° West 336 387 16,000 -780 Level Kansas City Center
Fri 07:22:20 PM 36.8944 -92.7125 287° West 317 365 14,400 -1,705 Descending Kansas City Center
Fri 07:27:44 PM 37.0526 -93.2085 311° West 247 284 5,000 -1,700 Descending FlightAware ADS-B
Fri 07:28:13 PM 37.0778 -93.2460 309° West 236 272 4,400 -1,067 Descending FlightAware ADS-B
Fri 07:28:29 PM 37.0881 -93.2616 310° West 229 264 4,200 -714 Descending FlightAware ADS-B
Fri 07:28:55 PM 37.1024 -93.2831 310° West 211 243 3,900 -698 Descending FlightAware ADS-B
Fri 07:29:12 PM 37.1163 -93.3038 310° West 204 235 3,700 -404 Descending FlightAware ADS-B
Fri 07:30:39 PM 37.1486 -93.3750 310° West 232 267 3,200 -489 Descending Kansas City Center
Fri 07:31:27 PM 37.1747 -93.4097 313° West 178 205 2,600 -750 Descending Kansas City Center
Fri 07:33:00 PM 37.2333 -93.3833 324° Northwest  Level FlightAware Approximate

Login

Don't have an account? Register now (free) for customized features, flight alerts, and more!